createdAt,value
2022-11-04T00:01:40.725Z,688.67
2022-11-04T00:04:07.622Z,692.83
2022-11-04T00:06:34.535Z,692.77
2022-11-04T00:09:01.423Z,689.23
2022-11-04T00:11:28.428Z,696.47
2022-11-04T00:13:55.355Z,691.20
2022-11-04T00:16:22.268Z,689.50
2022-11-04T00:18:49.223Z,690.33
2022-11-04T00:21:16.113Z,692.20
2022-11-04T00:23:43.049Z,692.50
2022-11-04T00:26:09.984Z,688.03
2022-11-04T00:28:36.917Z,689.03
2022-11-04T00:31:03.841Z,687.97
2022-11-04T00:33:30.767Z,691.47
2022-11-04T00:35:57.734Z,693.70
2022-11-04T00:38:24.673Z,692.57
2022-11-04T00:40:51.594Z,694.10
2022-11-04T00:43:18.560Z,691.93
2022-11-04T00:45:45.465Z,694.93
2022-11-04T00:48:12.410Z,687.97
2022-11-04T00:50:39.325Z,692.17
2022-11-04T00:53:06.484Z,699.23
2022-11-04T00:55:33.539Z,690.90
2022-11-04T00:58:00.494Z,696.13
2022-11-04T01:00:27.433Z,696.83
2022-11-04T01:02:54.382Z,690.93
2022-11-04T01:05:21.311Z,690.20
2022-11-04T01:07:48.241Z,695.07
2022-11-04T01:10:15.153Z,691.80
2022-11-04T01:12:42.068Z,697.63
2022-11-04T01:15:08.986Z,689.83
2022-11-04T01:17:35.906Z,690.30
2022-11-04T01:20:02.805Z,700.67
2022-11-04T01:22:29.720Z,696.13
2022-11-04T01:24:56.668Z,692.20
2022-11-04T01:27:23.617Z,691.97
2022-11-04T01:29:50.524Z,693.43
2022-11-04T01:32:17.467Z,695.83
2022-11-04T01:34:44.380Z,696.93
2022-11-04T01:37:11.321Z,690.33
2022-11-04T01:39:38.228Z,689.20
2022-11-04T01:42:05.161Z,699.10
2022-11-04T01:44:32.093Z,696.73
2022-11-04T01:46:59.042Z,694.87
2022-11-04T01:49:26.010Z,689.93
2022-11-04T01:51:52.935Z,695.33
2022-11-04T01:54:19.896Z,693.20
2022-11-04T01:56:46.892Z,689.80
2022-11-04T01:59:13.833Z,690.33
2022-11-04T02:01:40.887Z,692.60
2022-11-04T02:04:07.867Z,696.43
2022-11-04T02:06:34.851Z,689.63
2022-11-04T02:09:01.832Z,695.17
2022-11-04T02:11:28.852Z,692.30
2022-11-04T02:13:55.777Z,689.40
2022-11-04T02:16:22.684Z,691.83
2022-11-04T02:18:49.599Z,689.93
2022-11-04T02:21:16.545Z,696.30
2022-11-04T02:23:43.492Z,694.37
2022-11-04T02:26:10.424Z,692.93
2022-11-04T02:28:37.605Z,689.13
2022-11-04T02:31:04.494Z,695.97
2022-11-04T02:33:31.409Z,694.03
2022-11-04T02:35:58.390Z,687.83
2022-11-04T02:38:25.307Z,693.37
2022-11-04T02:40:52.221Z,688.03
2022-11-04T02:43:19.151Z,696.83
2022-11-04T02:45:46.068Z,689.10
2022-11-04T02:48:12.985Z,695.10
2022-11-04T02:50:39.882Z,693.00
2022-11-04T02:53:07.222Z,691.90
2022-11-04T02:55:34.457Z,693.93
2022-11-04T02:58:01.404Z,689.07
2022-11-04T03:00:28.320Z,691.47
2022-11-04T03:02:55.240Z,693.53
2022-11-04T03:05:22.188Z,689.50
2022-11-04T03:07:49.124Z,688.73
2022-11-04T03:10:16.036Z,694.53
2022-11-04T03:12:42.953Z,688.00
2022-11-04T03:15:09.857Z,687.43
2022-11-04T03:17:36.765Z,689.43
2022-11-04T03:20:03.686Z,696.33
2022-11-04T03:22:30.615Z,690.60
2022-11-04T03:24:57.536Z,692.07
2022-11-04T03:27:24.496Z,696.17
2022-11-04T03:29:51.408Z,692.40
2022-11-04T03:32:18.309Z,692.20
2022-11-04T03:34:45.248Z,688.80
2022-11-04T03:37:12.169Z,697.73
2022-11-04T03:39:39.131Z,690.07
2022-11-04T03:42:06.111Z,692.73
2022-11-04T03:44:33.040Z,684.30
2022-11-04T03:46:59.945Z,694.63
2022-11-04T03:49:26.882Z,688.43
2022-11-04T03:51:53.788Z,692.13
2022-11-04T03:54:20.784Z,691.03
2022-11-04T03:56:47.713Z,693.03
2022-11-04T03:59:14.638Z,691.90
2022-11-04T04:01:41.745Z,693.53
2022-11-04T04:04:08.757Z,698.53
2022-11-04T04:06:35.660Z,696.60
2022-11-04T04:09:02.580Z,689.90
2022-11-04T04:11:29.505Z,694.93
2022-11-04T04:13:56.538Z,693.17
2022-11-04T04:16:26.220Z,687.70
2022-11-04T04:18:57.383Z,690.23
2022-11-04T04:21:25.658Z,688.50
2022-11-04T04:23:52.590Z,691.73
2022-11-04T04:26:19.569Z,695.50
2022-11-04T04:28:46.519Z,693.13
2022-11-04T04:31:13.440Z,688.67
2022-11-04T04:33:40.389Z,693.63
2022-11-04T04:36:07.308Z,688.47
2022-11-04T04:38:34.222Z,693.17
2022-11-04T04:41:01.115Z,689.77
2022-11-04T04:43:28.035Z,688.37
2022-11-04T04:45:54.933Z,694.47
2022-11-04T04:48:21.866Z,693.03
2022-11-04T04:50:48.840Z,690.00
2022-11-04T04:53:15.739Z,690.47
2022-11-04T04:55:42.673Z,689.43
2022-11-04T04:58:09.617Z,691.03
2022-11-04T05:00:36.547Z,694.80
2022-11-04T05:03:03.477Z,693.70
2022-11-04T05:05:30.384Z,693.90
2022-11-04T05:07:57.311Z,692.33
2022-11-04T05:10:24.265Z,696.87
2022-11-04T05:12:51.187Z,691.47
2022-11-04T05:15:18.128Z,687.70
2022-11-04T05:17:45.042Z,692.07
2022-11-04T05:20:11.980Z,694.00
2022-11-04T05:22:38.905Z,689.37
2022-11-04T05:25:05.818Z,693.00
2022-11-04T05:27:32.716Z,691.50
2022-11-04T05:29:59.635Z,691.90
2022-11-04T05:32:26.549Z,693.03
2022-11-04T05:34:53.489Z,697.57
2022-11-04T05:37:20.375Z,693.93
2022-11-04T05:39:47.282Z,692.17
2022-11-04T05:42:15.421Z,688.83
2022-11-04T05:44:42.322Z,697.13
2022-11-04T05:47:09.241Z,694.27
2022-11-04T05:49:36.177Z,691.37
2022-11-04T05:52:03.095Z,688.17
2022-11-04T05:54:30.030Z,692.23
2022-11-04T05:56:57.003Z,695.17
2022-11-04T05:59:23.986Z,689.10
2022-11-04T06:01:50.994Z,698.53
2022-11-04T06:04:18.012Z,693.63
2022-11-04T06:06:44.935Z,701.30
2022-11-04T06:09:11.877Z,689.83
2022-11-04T06:11:38.795Z,690.70
2022-11-04T06:14:05.740Z,690.07
2022-11-04T06:16:32.658Z,691.00
2022-11-04T06:19:03.402Z,688.13
2022-11-04T06:21:34.577Z,688.87
2022-11-04T06:24:01.541Z,691.33
2022-11-04T06:26:28.697Z,696.63
2022-11-04T06:28:55.744Z,693.13
2022-11-04T06:31:22.657Z,693.77
2022-11-04T06:33:49.558Z,697.20
2022-11-04T06:36:16.466Z,692.57
2022-11-04T06:38:43.394Z,694.27
2022-11-04T06:41:10.300Z,697.73
2022-11-04T06:43:37.234Z,696.77
2022-11-04T06:46:04.195Z,691.97
2022-11-04T06:48:31.111Z,697.90
2022-11-04T06:50:58.058Z,689.87
2022-11-04T06:53:25.112Z,693.83
2022-11-04T06:55:52.054Z,699.23
2022-11-04T06:58:18.959Z,697.70
2022-11-04T07:00:45.914Z,695.77
2022-11-04T07:03:12.841Z,689.17
2022-11-04T07:05:39.819Z,697.13
2022-11-04T07:08:06.933Z,695.20
2022-11-04T07:10:34.051Z,690.20
2022-11-04T07:13:01.030Z,698.43
2022-11-04T07:15:27.979Z,688.67
2022-11-04T07:17:54.901Z,693.67
2022-11-04T07:20:21.853Z,695.53
2022-11-04T07:22:48.982Z,696.43
2022-11-04T07:25:15.922Z,690.57
2022-11-04T07:27:42.854Z,690.13
2022-11-04T07:30:09.799Z,693.90
2022-11-04T07:32:36.715Z,691.53
2022-11-04T07:35:03.660Z,697.53
2022-11-04T07:37:30.582Z,695.83
2022-11-04T07:39:57.500Z,685.70
2022-11-04T07:42:24.422Z,694.83
2022-11-04T07:44:51.365Z,694.17
2022-11-04T07:47:18.276Z,698.57
2022-11-04T07:49:45.340Z,690.67
2022-11-04T07:52:12.269Z,690.77
2022-11-04T07:54:39.195Z,695.93
2022-11-04T07:57:06.073Z,689.00
2022-11-04T07:59:32.980Z,696.90
2022-11-04T08:01:59.976Z,689.87
2022-11-04T08:04:26.961Z,690.50
2022-11-04T08:06:53.871Z,688.37
2022-11-04T08:09:20.846Z,697.70
2022-11-04T08:11:47.841Z,690.60
2022-11-04T08:14:14.763Z,697.87
2022-11-04T08:16:41.667Z,700.73
2022-11-04T08:19:08.589Z,689.50
2022-11-04T08:21:35.542Z,694.90
2022-11-04T08:24:02.464Z,693.50
2022-11-04T08:26:29.364Z,692.77
2022-11-04T08:28:56.542Z,693.77
2022-11-04T08:31:23.461Z,688.83
2022-11-04T08:33:50.400Z,689.37
2022-11-04T08:36:17.407Z,693.53
2022-11-04T08:38:44.321Z,696.33
2022-11-04T08:41:11.239Z,688.53
2022-11-04T08:43:38.137Z,687.03
2022-11-04T08:46:05.042Z,689.83
2022-11-04T08:48:31.948Z,688.07
2022-11-04T08:50:58.952Z,695.03
2022-11-04T08:53:25.931Z,696.80
2022-11-04T08:55:52.882Z,686.73
2022-11-04T08:58:19.817Z,691.10
2022-11-04T09:00:46.716Z,695.63
2022-11-04T09:03:13.633Z,695.70
2022-11-04T09:05:40.570Z,690.60
2022-11-04T09:08:07.507Z,692.03
2022-11-04T09:10:34.431Z,692.43
2022-11-04T09:13:01.357Z,691.50
2022-11-04T09:15:28.270Z,695.63
2022-11-04T09:17:55.186Z,690.17
2022-11-04T09:20:22.343Z,693.30
2022-11-04T09:22:49.285Z,690.47
2022-11-04T09:25:16.207Z,691.13
2022-11-04T09:27:43.129Z,690.57
2022-11-04T09:30:10.031Z,696.53
2022-11-04T09:32:36.909Z,691.63
2022-11-04T09:35:03.822Z,690.23
2022-11-04T09:37:30.750Z,700.00
2022-11-04T09:39:57.652Z,690.77
2022-11-04T09:42:24.592Z,690.77
2022-11-04T09:45:20.190Z,690.20
2022-11-04T09:47:38.391Z,696.10
2022-11-04T09:50:05.347Z,694.53
2022-11-04T09:52:32.263Z,696.07
2022-11-04T09:54:59.255Z,696.73
2022-11-04T09:57:26.183Z,688.80
2022-11-04T09:59:53.153Z,690.57
2022-11-04T10:02:22.343Z,692.87
2022-11-04T10:04:49.540Z,690.83
2022-11-04T10:07:16.478Z,694.17
2022-11-04T10:09:43.415Z,694.73
2022-11-04T10:12:10.313Z,687.53
2022-11-04T10:14:37.257Z,689.67
2022-11-04T10:17:04.162Z,690.77
2022-11-04T10:19:31.116Z,686.93
2022-11-04T10:21:58.031Z,689.97
2022-11-04T10:24:24.948Z,692.23
2022-11-04T10:26:54.883Z,689.17
2022-11-04T10:29:25.997Z,694.53
2022-11-04T10:31:52.912Z,691.67
2022-11-04T10:34:19.835Z,697.27
2022-11-04T10:36:46.766Z,695.63
2022-11-04T10:39:13.717Z,691.27
2022-11-04T10:41:40.615Z,697.07
2022-11-04T10:44:07.529Z,689.13
2022-11-04T10:46:38.385Z,691.67
2022-11-04T10:49:05.844Z,693.70
2022-11-04T10:51:32.744Z,694.10
2022-11-04T10:53:59.711Z,690.27
2022-11-04T10:56:26.683Z,695.57
2022-11-04T10:58:53.631Z,693.13
2022-11-04T11:01:20.673Z,694.43
2022-11-04T11:03:47.673Z,693.73
2022-11-04T11:06:14.590Z,690.10
2022-11-04T11:08:41.521Z,693.43
2022-11-04T11:11:08.440Z,696.83
2022-11-04T11:13:35.363Z,688.97
2022-11-04T11:16:02.294Z,689.53
2022-11-04T11:18:29.180Z,686.30
2022-11-04T11:20:56.096Z,690.60
2022-11-04T11:23:23.041Z,697.97
2022-11-04T11:25:49.951Z,691.60
2022-11-04T11:28:16.933Z,690.43
2022-11-04T11:30:43.844Z,690.43
2022-11-04T11:33:10.870Z,697.57
2022-11-04T11:35:38.204Z,692.67
2022-11-04T11:38:05.106Z,691.07
2022-11-04T11:40:32.084Z,688.90
2022-11-04T11:42:59.000Z,692.00
2022-11-04T11:45:25.965Z,692.03
2022-11-04T11:47:52.865Z,692.23
2022-11-04T11:50:19.755Z,689.07
2022-11-04T11:52:46.642Z,693.20
2022-11-04T11:55:13.550Z,691.40
2022-11-04T11:57:40.613Z,688.73
2022-11-04T12:02:54.646Z,691.93
2022-11-04T12:10:55.508Z,686.50
2022-11-04T12:13:24.983Z,690.90
2022-11-04T12:15:54.208Z,695.83
2022-11-04T12:18:21.112Z,690.70
2022-11-04T12:20:48.008Z,689.93
2022-11-04T12:23:14.920Z,687.83
2022-11-04T12:25:41.855Z,696.43
2022-11-04T12:28:08.732Z,690.10
2022-11-04T12:30:38.549Z,689.90
2022-11-04T12:33:05.646Z,689.50
2022-11-04T12:35:32.626Z,690.27
2022-11-04T12:37:59.545Z,695.00
2022-11-04T12:40:26.489Z,690.77
2022-11-04T12:42:53.418Z,687.90
2022-11-04T12:45:20.376Z,693.27
2022-11-04T12:47:47.316Z,695.67
2022-11-04T12:50:14.272Z,689.40
2022-11-04T12:52:41.204Z,694.30
2022-11-04T12:55:08.149Z,693.70
2022-11-04T12:57:35.073Z,690.43
2022-11-04T13:00:02.023Z,693.97
2022-11-04T13:02:29.114Z,697.87
2022-11-04T13:04:56.164Z,692.63
2022-11-04T13:07:23.050Z,691.57
2022-11-04T13:09:49.949Z,693.93
2022-11-04T13:12:16.866Z,698.17
2022-11-04T13:14:43.800Z,697.10
2022-11-04T13:17:10.738Z,691.97
2022-11-04T13:19:37.658Z,694.77
2022-11-04T13:22:04.563Z,695.83
2022-11-04T13:24:31.509Z,694.57
2022-11-04T13:26:58.407Z,695.93
2022-11-04T13:29:25.309Z,693.13
2022-11-04T13:31:52.185Z,692.40
2022-11-04T13:34:23.082Z,689.00
2022-11-04T13:36:50.313Z,697.30
2022-11-04T13:39:17.201Z,698.47
2022-11-04T13:41:44.129Z,690.50
2022-11-04T13:44:12.101Z,697.93
2022-11-04T13:46:39.011Z,690.43
2022-11-04T13:49:05.928Z,696.93
2022-11-04T13:51:32.868Z,695.93
2022-11-04T13:53:59.748Z,692.67
2022-11-04T13:56:34.886Z,693.20
2022-11-04T13:59:02.335Z,690.63
2022-11-04T14:01:29.362Z,695.67
2022-11-04T14:03:56.377Z,688.40
2022-11-04T14:06:28.150Z,697.33
2022-11-04T14:08:56.054Z,697.30
2022-11-04T14:11:23.168Z,693.73
2022-11-04T14:13:50.247Z,688.83
2022-11-04T14:16:17.351Z,694.67
2022-11-04T14:18:44.272Z,688.40
2022-11-04T14:21:11.204Z,690.57
2022-11-04T14:23:38.120Z,688.97
2022-11-04T14:26:05.064Z,692.33
2022-11-04T14:28:31.972Z,687.83
2022-11-04T14:30:58.888Z,695.10
2022-11-04T14:33:25.807Z,693.40
2022-11-04T14:35:52.766Z,693.37
2022-11-04T14:38:19.691Z,690.70
2022-11-04T14:40:46.604Z,694.77
2022-11-04T14:43:13.558Z,689.87
2022-11-04T14:45:40.471Z,689.80
2022-11-04T14:48:08.995Z,695.57
2022-11-04T14:50:37.654Z,693.00
2022-11-04T14:53:04.583Z,692.13
2022-11-04T14:55:31.510Z,691.20
2022-11-04T14:57:58.413Z,694.33
2022-11-04T15:00:25.300Z,695.83
2022-11-04T15:02:52.196Z,690.77
2022-11-04T15:05:19.245Z,696.53
2022-11-04T15:07:46.132Z,690.63
2022-11-04T15:10:13.089Z,697.50
2022-11-04T15:12:40.049Z,695.60
2022-11-04T15:15:07.008Z,692.07
2022-11-04T15:17:33.899Z,689.40
2022-11-04T15:20:00.822Z,695.57
2022-11-04T15:22:27.750Z,701.27
2022-11-04T15:24:54.688Z,690.37
2022-11-04T15:27:21.595Z,691.53
2022-11-04T15:29:48.523Z,693.70
2022-11-04T15:32:15.440Z,695.07
2022-11-04T15:34:42.373Z,695.93
2022-11-04T15:37:09.341Z,692.10
2022-11-04T15:39:36.260Z,695.63
2022-11-04T15:42:03.164Z,691.87
2022-11-04T15:44:30.077Z,697.77
2022-11-04T15:46:56.991Z,689.70
2022-11-04T15:49:23.878Z,689.47
2022-11-04T15:51:50.827Z,693.93
2022-11-04T15:54:17.728Z,693.97
2022-11-04T15:56:44.621Z,688.50
2022-11-04T15:59:11.514Z,694.77
2022-11-04T16:01:38.550Z,689.53
2022-11-04T16:04:05.567Z,691.37
2022-11-04T16:06:32.470Z,696.27
2022-11-04T16:08:59.371Z,694.60
2022-11-04T16:11:26.379Z,694.23
2022-11-04T16:13:53.411Z,697.07
2022-11-04T16:16:20.322Z,698.93
2022-11-04T16:18:47.222Z,703.37
2022-11-04T16:21:13.656Z,700.67
2022-11-04T16:23:40.055Z,706.07
2022-11-04T16:26:06.459Z,703.53
2022-11-04T16:28:37.016Z,707.80
2022-11-04T16:31:03.474Z,701.27
2022-11-04T16:33:29.945Z,703.57
2022-11-04T16:35:56.355Z,701.47
2022-11-04T16:38:25.178Z,699.83
2022-11-04T16:40:51.702Z,706.53
2022-11-04T16:43:18.157Z,706.67
2022-11-04T16:45:47.296Z,701.37
2022-11-04T16:48:17.371Z,700.50
2022-11-04T16:50:43.866Z,700.97
2022-11-04T16:53:10.542Z,703.37
2022-11-04T16:55:37.239Z,706.03
2022-11-04T16:58:03.746Z,698.83
2022-11-04T17:00:30.230Z,699.87
2022-11-04T17:02:57.678Z,698.43
2022-11-04T17:05:24.093Z,700.03
2022-11-04T17:07:54.505Z,699.53
2022-11-04T17:10:21.830Z,702.27
2022-11-04T17:12:48.254Z,707.00
2022-11-04T17:15:15.595Z,703.00
2022-11-04T17:17:42.118Z,711.27
2022-11-04T17:20:08.583Z,697.77
2022-11-04T17:22:35.010Z,710.30
2022-11-04T17:25:01.452Z,701.87
2022-11-04T17:27:27.899Z,701.50
2022-11-04T17:29:54.410Z,704.27
2022-11-04T17:32:20.855Z,703.57
2022-11-04T17:34:47.278Z,703.57
2022-11-04T17:37:13.694Z,701.37
2022-11-04T17:39:40.085Z,700.17
2022-11-04T17:42:06.492Z,701.03
2022-11-04T17:44:32.900Z,702.73
2022-11-04T17:46:59.335Z,705.87
2022-11-04T17:49:25.751Z,698.57
2022-11-04T17:51:52.185Z,705.43
2022-11-04T17:54:18.605Z,703.43
2022-11-04T17:56:45.025Z,698.23
2022-11-04T17:59:11.412Z,704.83
2022-11-04T18:01:38.580Z,698.50
2022-11-04T18:04:05.116Z,704.67
2022-11-04T18:06:31.572Z,705.27
2022-11-04T18:08:57.993Z,701.00
2022-11-04T18:11:24.434Z,701.30
2022-11-04T18:13:50.857Z,701.33
2022-11-04T18:16:17.364Z,704.17
2022-11-04T18:18:43.769Z,699.17
2022-11-04T18:21:10.191Z,708.33
2022-11-04T18:23:36.593Z,698.83
2022-11-04T18:26:05.779Z,698.90
2022-11-04T18:28:32.179Z,697.87
2022-11-04T18:30:58.614Z,703.20
2022-11-04T18:33:25.092Z,700.13
2022-11-04T18:35:51.506Z,702.20
2022-11-04T18:38:17.945Z,706.90
2022-11-04T18:40:44.505Z,702.47
2022-11-04T18:43:11.285Z,705.40
2022-11-04T18:45:37.960Z,696.10
2022-11-04T18:48:04.371Z,702.03
2022-11-04T18:50:30.796Z,699.17
2022-11-04T18:52:57.203Z,700.37
2022-11-04T18:55:23.619Z,705.87
2022-11-04T18:57:50.016Z,702.50
2022-11-04T19:00:17.393Z,699.87
2022-11-04T19:02:43.990Z,701.90
2022-11-04T19:05:10.425Z,702.43
2022-11-04T19:07:36.858Z,696.40
2022-11-04T19:10:03.264Z,697.00
2022-11-04T19:12:29.716Z,699.33
2022-11-04T19:14:56.160Z,706.33
2022-11-04T19:17:22.586Z,702.93
2022-11-04T19:19:49.021Z,702.53
2022-11-04T19:22:15.433Z,700.87
2022-11-04T19:24:41.843Z,706.73
2022-11-04T19:27:08.255Z,699.57
2022-11-04T19:29:34.687Z,703.37
2022-11-04T19:32:01.110Z,701.43
2022-11-04T19:34:27.545Z,701.70
2022-11-04T19:36:53.974Z,699.80
2022-11-04T19:39:20.393Z,704.93
2022-11-04T19:41:46.839Z,704.03
2022-11-04T19:44:13.248Z,703.47
2022-11-04T19:46:39.761Z,703.20
2022-11-04T19:49:06.175Z,700.23
2022-11-04T19:51:32.619Z,703.73
2022-11-04T19:53:59.042Z,698.03
2022-11-04T19:56:25.500Z,702.17
2022-11-04T19:58:51.945Z,702.97
2022-11-04T20:01:18.461Z,708.53
2022-11-04T20:03:44.971Z,705.03
2022-11-04T20:06:11.458Z,699.77
2022-11-04T20:08:37.866Z,701.20
2022-11-04T20:11:04.283Z,706.37
2022-11-04T20:13:30.689Z,701.63
2022-11-04T20:15:57.112Z,706.17
2022-11-04T20:18:23.529Z,701.43
2022-11-04T20:20:49.940Z,700.70
2022-11-04T20:23:16.371Z,699.03
2022-11-04T20:25:42.830Z,703.93
2022-11-04T20:28:09.608Z,708.10
2022-11-04T20:30:36.201Z,706.83
2022-11-04T20:33:02.620Z,708.67
2022-11-04T20:35:29.039Z,701.30
2022-11-04T20:37:55.443Z,699.83
2022-11-04T20:40:21.975Z,699.57
2022-11-04T20:42:48.478Z,707.63
2022-11-04T20:45:14.907Z,699.70
2022-11-04T20:47:41.336Z,707.80
2022-11-04T20:50:07.766Z,707.97
2022-11-04T20:52:34.207Z,699.00
2022-11-04T20:55:00.640Z,701.80
2022-11-04T20:57:27.090Z,704.77
2022-11-04T20:59:53.506Z,702.73
2022-11-04T21:02:20.004Z,703.67
2022-11-04T21:04:46.467Z,704.53
2022-11-04T21:07:13.644Z,701.27
2022-11-04T21:09:40.049Z,703.33
2022-11-04T21:12:06.484Z,701.27
2022-11-04T21:14:33.163Z,703.20
2022-11-04T21:16:59.625Z,701.70
2022-11-04T21:19:26.032Z,701.23
2022-11-04T21:21:52.555Z,704.90
2022-11-04T21:24:18.981Z,700.33
2022-11-04T21:26:45.395Z,702.57
2022-11-04T21:29:11.797Z,703.67
2022-11-04T21:31:38.276Z,705.77
2022-11-04T21:34:05.711Z,701.77
2022-11-04T21:36:32.128Z,699.63
2022-11-04T21:38:58.610Z,704.40
2022-11-04T21:41:25.046Z,707.53
2022-11-04T21:43:51.524Z,701.87
2022-11-04T21:46:18.748Z,703.60
2022-11-04T21:48:45.199Z,706.50
2022-11-04T21:51:12.957Z,703.23
2022-11-04T22:00:50.856Z,702.53
2022-11-04T22:02:03.209Z,704.37
2022-11-04T22:04:29.906Z,703.93
2022-11-04T22:06:56.495Z,702.03
2022-11-04T22:09:31.658Z,717.07
2022-11-04T22:20:26.464Z,701.80
2022-11-04T22:28:29.592Z,703.40
2022-11-04T22:33:57.492Z,710.30
2022-11-04T22:36:31.062Z,708.17
2022-11-04T22:39:04.761Z,709.57
2022-11-04T22:42:09.797Z,704.00
2022-11-04T22:50:17.541Z,703.77
2022-11-04T22:55:25.555Z,704.67
2022-11-04T22:57:52.059Z,702.37
2022-11-04T23:00:23.587Z,713.27
2022-11-04T23:02:50.205Z,706.17
2022-11-04T23:05:16.721Z,707.47
2022-11-04T23:07:43.148Z,700.60
2022-11-04T23:10:09.606Z,704.23
2022-11-04T23:12:36.020Z,706.70
2022-11-04T23:15:02.430Z,706.70
2022-11-04T23:17:28.884Z,706.70
2022-11-04T23:19:55.302Z,701.30
2022-11-04T23:22:21.766Z,699.27
2022-11-04T23:24:48.181Z,705.70
2022-11-04T23:27:14.710Z,704.87
2022-11-04T23:29:41.151Z,699.90
2022-11-04T23:32:07.610Z,699.47
2022-11-04T23:34:34.054Z,705.70
2022-11-04T23:37:00.500Z,704.43
2022-11-04T23:39:26.901Z,709.57
2022-11-04T23:41:53.313Z,704.60
2022-11-04T23:44:19.709Z,700.10
2022-11-04T23:46:46.168Z,704.27
2022-11-04T23:49:12.586Z,700.67
2022-11-04T23:51:39.012Z,703.63
2022-11-04T23:54:05.440Z,700.80
2022-11-04T23:56:31.836Z,699.90
2022-11-04T23:58:58.254Z,702.03
